Chicago Midway International Airport
KMDW : now visible

Airfield :











YOU CAN JOIN US ON...

 
LOGIN :

Register | Disclaimer

   EN    FR    IT 

 









Legend :    VFR   Marginal VFR   IFR   Intensive IFR   Very Intensive IFR
Visi :
Ceiling :
>= 8 km
>= 3000ft
5 to 8 km
1000 to 3000 ft
1500m to 5 km
500 to 1000 ft
800 to 1500m
200 to 500 ft
< 800m
< 200 ft
Symbols :   Thunderstorms  Fog  Heavy snow  Heavy precipitations  Wind > 20 kt







- Airport Elevation : 620 ft
- IATA code : MDW


KMDW - Chicago Midway International

CURRENT METAR :
  • 201953Z 21006KT 10SM FEW070 BKN250 29/19 A3008 RMK AO2 SLP175 T02940194

EXPIRED METARs :
  • 201853Z 16004KT 10SM FEW050 BKN250 29/20 A3009 RMK AO2 SLP180 T02890200
  • 201753Z 26003KT 10SM FEW046 SCT070 BKN210 BKN250 27/19 A3012 RMK AO2 SLP190 T02720194 10278 20217 56006

TAF KMDW
Valid from the 20 at 18:00 until the 22 at 00:00 UTC


201738Z 2018/2124 23004KT P6SM FEW040 BKN250
FM202200 12007KT P6SM SCT250
FM210700 19004KT P6SM FEW250
FM211400 20013G20KT P6SM SCT060 BKN100
PROB30 2114/2118 6SM -SHRA BR BKN050
FM211800 22015G25KT P6SM BKN050 OVC080
PROB30 2120/2124 4SM -TSRA BR BKN035CB OVC150
No reported NOTAMs for that airfield.



MET'MAP, your aeronautical weather chart ! - Copyright ORBIFLY December 2007 - Disclaimer

ORBIFLY MET'MAP TEAM :

Programming & Development : Alexandra Zaïnal
Concept & Development : Baudouin d'Aumeries
Co-Development & Prog : Marc-Olivier Méhu
Technical & hardware support : Manuel Goepfert

Contact : metmap@orbifly.com




SOURCES & CREDITS :

   NOAA       Earth
Advisory